Time,TemperatureF,DewpointF,PressureIn,WindDirection,WindDirectionDegrees,WindSpeedMPH,WindSpeedGustMPH,Humidity,HourlyPrecipIn,Conditions,Clouds,dailyrainin,SoftwareType,DateUTC
2013-01-14 00:01:00,-6.6,-11.0,25.73,West,263,5.0,7.0,82,0.00,,,0.00,weatherlink.com 1.10,2013-01-14 07:01:00,
2013-01-14 00:17:00,-6.1,-10.0,25.72,WSW,249,3.0,6.0,83,0.00,,,0.00,weatherlink.com 1.10,2013-01-14 07:17:00,
2013-01-14 00:32:00,-5.9,-10.0,25.72,WSW,257,3.0,4.0,82,0.00,,,0.00,weatherlink.com 1.10,2013-01-14 07:32:00,
2013-01-14 00:47:00,-6.5,-11.0,25.71,West,274,2.0,4.0,82,0.00,,,0.00,weatherlink.com 1.10,2013-01-14 07:47:00,
2013-01-14 01:02:00,-5.6,-10.0,25.71,West,279,3.0,4.0,83,0.00,,,0.00,weatherlink.com 1.10,2013-01-14 08:02:00,
2013-01-14 01:17:00,-6.1,-10.0,25.72,West,269,3.0,4.0,82,0.00,,,0.00,weatherlink.com 1.10,2013-01-14 08:17:00,
2013-01-14 01:32:00,-7.1,-11.0,25.72,West,259,2.0,3.0,82,0.00,,,0.00,weatherlink.com 1.10,2013-01-14 08:32:00,
2013-01-14 01:47:00,-6.9,-11.0,25.73,WSW,243,7.0,7.0,83,0.00,,,0.00,weatherlink.com 1.10,2013-01-14 08:47:00,
2013-01-14 02:02:00,-5.7,-10.0,25.73,West,269,3.0,7.0,83,0.00,,,0.00,weatherlink.com 1.10,2013-01-14 09:02:00,
2013-01-14 02:17:00,-4.7,-8.0,25.73,West,269,1.0,5.0,84,0.00,,,0.00,weatherlink.com 1.10,2013-01-14 09:17:00,
2013-01-14 02:32:00,-4.0,-8.0,25.73,SW,231,6.0,8.0,83,0.00,,,0.00,weatherlink.com 1.10,2013-01-14 09:32:00,
2013-01-14 02:47:00,-3.0,-7.0,25.73,WSW,243,6.0,9.0,83,0.00,,,0.00,weatherlink.com 1.10,2013-01-14 09:47:00,
2013-01-14 03:02:00,-2.5,-7.0,25.73,West,264,6.0,7.0,82,0.00,,,0.00,weatherlink.com 1.10,2013-01-14 10:02:00,
2013-01-14 03:17:00,-2.3,-7.0,25.73,WSW,251,6.0,8.0,82,0.00,,,0.00,weatherlink.com 1.10,2013-01-14 10:17:00,
2013-01-14 03:33:00,-1.8,-6.0,25.73,West,261,5.0,7.0,82,0.00,,,0.00,weatherlink.com 1.10,2013-01-14 10:33:00,
2013-01-14 03:48:00,-1.2,-5.0,25.72,WSW,246,5.0,7.0,82,0.00,,,0.00,weatherlink.com 1.10,2013-01-14 10:48:00,
2013-01-14 04:03:00,-0.8,-5.0,25.72,WSW,238,5.0,6.0,82,0.00,,,0.00,weatherlink.com 1.10,2013-01-14 11:03:00,
2013-01-14 04:18:00,0.2,-4.0,25.72,NW,314,4.0,6.0,82,0.00,,,0.00,weatherlink.com 1.10,2013-01-14 11:18:00,
2013-01-14 04:33:00,1.0,-3.0,25.72,WNW,287,5.0,7.0,82,0.00,,,0.00,weatherlink.com 1.10,2013-01-14 11:33:00,
2013-01-14 04:48:00,1.6,-3.0,25.72,WSW,257,6.0,8.0,82,0.00,,,0.00,weatherlink.com 1.10,2013-01-14 11:48:00,
2013-01-14 05:03:00,1.6,-3.0,25.73,West,262,4.0,8.0,82,0.00,,,0.00,weatherlink.com 1.10,2013-01-14 12:03:00,
2013-01-14 05:18:00,1.5,-3.0,25.73,WSW,245,7.0,8.0,82,0.00,,,0.00,weatherlink.com 1.10,2013-01-14 12:18:00,
2013-01-14 05:33:00,1.6,-3.0,25.74,WSW,251,4.0,6.0,82,0.00,,,0.00,weatherlink.com 1.10,2013-01-14 12:33:00,
2013-01-14 05:49:00,1.6,-3.0,25.74,WSW,245,5.0,8.0,81,0.00,,,0.00,weatherlink.com 1.10,2013-01-14 12:49:00,
2013-01-14 06:03:00,0.9,-4.0,25.75,WSW,245,4.0,6.0,81,0.00,,,0.00,weatherlink.com 1.10,2013-01-14 13:03:00,
2013-01-14 06:18:00,0.1,-4.0,25.75,SW,226,3.0,5.0,81,0.00,,,0.00,weatherlink.com 1.10,2013-01-14 13:18:00,
2013-01-14 06:33:00,-0.9,-5.0,25.75,WSW,246,4.0,5.0,82,0.00,,,0.00,weatherlink.com 1.10,2013-01-14 13:33:00,
2013-01-14 06:48:00,-1.4,-6.0,25.75,WSW,242,6.0,7.0,82,0.00,,,0.00,weatherlink.com 1.10,2013-01-14 13:48:00,
2013-01-14 07:04:00,-2.0,-6.0,25.75,WSW,238,6.0,6.0,82,0.00,,,0.00,weatherlink.com 1.10,2013-01-14 14:04:00,
2013-01-14 07:19:00,-2.3,-7.0,25.76,WSW,245,6.0,7.0,82,0.00,,,0.00,weatherlink.com 1.10,2013-01-14 14:19:00,
2013-01-14 07:34:00,-2.3,-7.0,25.76,SW,236,6.0,7.0,82,0.00,,,0.00,weatherlink.com 1.10,2013-01-14 14:34:00,
2013-01-14 07:49:00,-2.2,-7.0,25.77,West,263,7.0,9.0,81,0.00,,,0.00,weatherlink.com 1.10,2013-01-14 14:49:00,
2013-01-14 08:04:00,-1.4,-6.0,25.77,WSW,242,10.0,11.0,81,0.00,,,0.00,weatherlink.com 1.10,2013-01-14 15:04:00,
2013-01-14 08:19:00,-0.3,-5.0,25.77,SW,236,11.0,13.0,81,0.00,,,0.00,weatherlink.com 1.10,2013-01-14 15:19:00,
2013-01-14 08:34:00,1.3,-3.0,25.77,SW,228,9.0,14.0,81,0.00,,,0.00,weatherlink.com 1.10,2013-01-14 15:34:00,
2013-01-14 08:49:00,2.8,-2.0,25.77,WSW,239,5.0,10.0,82,0.00,,,0.00,weatherlink.com 1.10,2013-01-14 15:49:00,
2013-01-14 09:04:00,5.0,0.0,25.77,SW,236,8.0,10.0,81,0.00,,,0.00,weatherlink.com 1.10,2013-01-14 16:04:00,
2013-01-14 09:19:00,6.7,2.0,25.76,SW,214,6.0,9.0,81,0.00,,,0.00,weatherlink.com 1.10,2013-01-14 16:19:00,
2013-01-14 09:34:00,8.3,3.0,25.76,SW,230,9.0,15.0,80,0.00,,,0.00,weatherlink.com 1.10,2013-01-14 16:34:00,
2013-01-14 09:49:00,9.1,4.0,25.75,WSW,238,10.0,15.0,81,0.00,,,0.00,weatherlink.com 1.10,2013-01-14 16:49:00,
2013-01-14 10:04:00,10.4,6.0,25.75,SW,228,13.0,16.0,81,0.00,,,0.00,weatherlink.com 1.10,2013-01-14 17:04:00,
2013-01-14 10:20:00,11.3,6.0,25.75,SW,224,12.0,15.0,80,0.00,,,0.00,weatherlink.com 1.10,2013-01-14 17:20:00,
2013-01-14 10:35:00,11.5,6.0,25.75,SW,224,14.0,16.0,79,0.00,,,0.00,weatherlink.com 1.10,2013-01-14 17:35:00,
2013-01-14 10:50:00,11.8,7.0,25.74,SW,224,12.0,16.0,80,0.00,,,0.00,weatherlink.com 1.10,2013-01-14 17:50:00,
2013-01-14 11:05:00,12.5,7.0,25.73,SW,233,13.0,16.0,79,0.00,,,0.00,weatherlink.com 1.10,2013-01-14 18:05:00,
2013-01-14 11:20:00,12.7,7.0,25.72,SW,229,13.0,15.0,78,0.00,,,0.00,weatherlink.com 1.10,2013-01-14 18:20:00,
2013-01-14 11:35:00,13.1,8.0,25.71,SW,235,15.0,16.0,79,0.00,,,0.00,weatherlink.com 1.10,2013-01-14 18:35:00,
2013-01-14 11:50:00,13.5,8.0,25.70,SW,231,12.0,15.0,78,0.00,,,0.00,weatherlink.com 1.10,2013-01-14 18:50:00,
2013-01-14 12:05:00,13.7,8.0,25.70,SW,235,12.0,14.0,77,0.00,,,0.00,weatherlink.com 1.10,2013-01-14 19:05:00,
2013-01-14 12:20:00,14.3,8.0,25.69,SW,222,9.0,14.0,75,0.00,,,0.00,weatherlink.com 1.10,2013-01-14 19:20:00,
2013-01-14 12:35:00,14.6,6.0,25.68,WSW,252,4.0,11.0,69,0.00,,,0.00,weatherlink.com 1.10,2013-01-14 19:35:00,
2013-01-14 12:50:00,15.2,7.0,25.68,SW,229,9.0,12.0,69,0.00,,,0.00,weatherlink.com 1.10,2013-01-14 19:50:00,
2013-01-14 13:05:00,15.2,5.0,25.67,WNW,298,9.0,15.0,64,0.00,,,0.00,weatherlink.com 1.10,2013-01-14 20:05:00,
2013-01-14 13:20:00,15.3,1.0,25.67,West,262,8.0,14.0,54,0.00,,,0.00,weatherlink.com 1.10,2013-01-14 20:20:00,
2013-01-14 13:36:00,15.5,2.0,25.67,West,273,7.0,14.0,56,0.00,,,0.00,weatherlink.com 1.10,2013-01-14 20:36:00,
2013-01-14 13:51:00,16.0,2.0,25.67,West,269,5.0,11.0,55,0.00,,,0.00,weatherlink.com 1.10,2013-01-14 20:51:00,
2013-01-14 14:06:00,16.0,4.0,25.67,WSW,245,8.0,12.0,58,0.00,,,0.00,weatherlink.com 1.10,2013-01-14 21:06:00,
2013-01-14 14:21:00,16.1,4.0,25.67,WSW,255,10.0,14.0,60,0.00,,,0.00,weatherlink.com 1.10,2013-01-14 21:21:00,
2013-01-14 14:36:00,16.3,5.0,25.68,SW,226,8.0,12.0,62,0.00,,,0.00,weatherlink.com 1.10,2013-01-14 21:36:00,
2013-01-14 14:51:00,16.7,4.0,25.68,WSW,248,7.0,10.0,58,0.00,,,0.00,weatherlink.com 1.10,2013-01-14 21:51:00,
2013-01-14 15:06:00,16.8,4.0,25.68,West,259,7.0,9.0,57,0.00,,,0.00,weatherlink.com 1.10,2013-01-14 22:06:00,
2013-01-14 15:21:00,16.3,3.0,25.68,NW,319,4.0,11.0,55,0.00,,,0.00,weatherlink.com 1.10,2013-01-14 22:21:00,
2013-01-14 15:36:00,15.9,2.0,25.69,NW,319,7.0,9.0,54,0.00,,,0.00,weatherlink.com 1.10,2013-01-14 22:36:00,
2013-01-14 15:51:00,14.8,2.0,25.69,NW,322,5.0,7.0,58,0.00,,,0.00,weatherlink.com 1.10,2013-01-14 22:51:00,
2013-01-14 16:06:00,14.3,2.0,25.69,WNW,301,3.0,5.0,57,0.00,,,0.00,weatherlink.com 1.10,2013-01-14 23:06:00,
2013-01-14 16:21:00,14.2,1.0,25.70,West,266,0.0,2.0,56,0.00,,,0.00,weatherlink.com 1.10,2013-01-14 23:21:00,
2013-01-14 16:36:00,13.6,0.0,25.70,SW,229,2.0,3.0,55,0.00,,,0.00,weatherlink.com 1.10,2013-01-14 23:36:00,
2013-01-14 17:07:00,10.4,-2.0,25.70,WSW,239,3.0,3.0,59,0.00,,,0.00,weatherlink.com 1.10,2013-01-15 00:07:00,
2013-01-14 17:22:00,9.2,-3.0,25.70,WSW,242,2.0,4.0,58,0.00,,,0.00,weatherlink.com 1.10,2013-01-15 00:22:00,
2013-01-14 17:37:00,5.7,-5.0,25.70,SW,214,3.0,4.0,62,0.00,,,0.00,weatherlink.com 1.10,2013-01-15 00:37:00,
2013-01-14 17:52:00,6.1,-3.0,25.71,WSW,240,5.0,6.0,67,0.00,,,0.00,weatherlink.com 1.10,2013-01-15 00:52:00,
2013-01-14 18:07:00,6.4,-2.0,25.71,West,260,5.0,5.0,67,0.00,,,0.00,weatherlink.com 1.10,2013-01-15 01:07:00,
2013-01-14 18:22:00,3.3,-4.0,25.71,WSW,240,6.0,7.0,73,0.00,,,0.00,weatherlink.com 1.10,2013-01-15 01:22:00,
2013-01-14 18:37:00,1.6,-6.0,25.71,SW,235,7.0,8.0,72,0.00,,,0.00,weatherlink.com 1.10,2013-01-15 01:37:00,
2013-01-14 19:07:00,-0.8,-7.0,25.70,WSW,239,5.0,5.0,75,0.00,,,0.00,weatherlink.com 1.10,2013-01-15 02:07:00,
2013-01-14 19:22:00,-2.7,-9.0,25.70,WSW,246,6.0,6.0,76,0.00,,,0.00,weatherlink.com 1.10,2013-01-15 02:22:00,
2013-01-14 19:37:00,-3.0,-9.0,25.70,WSW,250,7.0,7.0,77,0.00,,,0.00,weatherlink.com 1.10,2013-01-15 02:37:00,
2013-01-14 19:52:00,-2.8,-8.0,25.70,West,259,7.0,8.0,79,0.00,,,0.00,weatherlink.com 1.10,2013-01-15 02:52:00,
2013-01-14 20:07:00,-1.2,-6.0,25.70,West,263,8.0,10.0,81,0.00,,,0.00,weatherlink.com 1.10,2013-01-15 03:07:00,
2013-01-14 20:23:00,-1.1,-6.0,25.69,SW,236,9.0,10.0,80,0.00,,,0.00,weatherlink.com 1.10,2013-01-15 03:23:00,
2013-01-14 20:38:00,-1.1,-6.0,25.69,WSW,248,8.0,9.0,78,0.00,,,0.00,weatherlink.com 1.10,2013-01-15 03:38:00,
2013-01-14 20:53:00,-2.0,-7.0,25.69,SW,236,7.0,9.0,78,0.00,,,0.00,weatherlink.com 1.10,2013-01-15 03:53:00,
2013-01-14 21:08:00,-2.2,-8.0,25.69,WSW,250,9.0,10.0,77,0.00,,,0.00,weatherlink.com 1.10,2013-01-15 04:08:00,
2013-01-14 21:23:00,-2.7,-8.0,25.69,WSW,238,9.0,10.0,77,0.00,,,0.00,weatherlink.com 1.10,2013-01-15 04:23:00,
2013-01-14 21:38:00,-4.1,-10.0,25.69,WSW,257,5.0,7.0,77,0.00,,,0.00,weatherlink.com 1.10,2013-01-15 04:38:00,
2013-01-14 21:53:00,-4.4,-10.0,25.69,WSW,246,8.0,10.0,78,0.00,,,0.00,weatherlink.com 1.10,2013-01-15 04:53:00,
2013-01-14 22:08:00,-4.8,-10.0,25.69,West,266,5.0,8.0,78,0.00,,,0.00,weatherlink.com 1.10,2013-01-15 05:08:00,
2013-01-14 22:23:00,-4.8,-10.0,25.69,WSW,257,8.0,9.0,79,0.00,,,0.00,weatherlink.com 1.10,2013-01-15 05:23:00,
2013-01-14 22:38:00,-5.2,-10.0,25.69,West,260,7.0,8.0,80,0.00,,,0.00,weatherlink.com 1.10,2013-01-15 05:38:00,
2013-01-14 22:53:00,-4.4,-9.0,25.69,WSW,252,9.0,11.0,81,0.00,,,0.00,weatherlink.com 1.10,2013-01-15 05:53:00,
2013-01-14 23:08:00,-4.0,-8.0,25.68,West,259,7.0,9.0,82,0.00,,,0.00,weatherlink.com 1.10,2013-01-15 06:08:00,
2013-01-14 23:23:00,-3.2,-7.0,25.68,West,259,8.0,9.0,82,0.00,,,0.00,weatherlink.com 1.10,2013-01-15 06:23:00,
2013-01-14 23:38:00,-2.7,-7.0,25.68,West,273,6.0,10.0,82,0.00,,,0.00,weatherlink.com 1.10,2013-01-15 06:38:00,
2013-01-14 23:54:00,-2.6,-7.0,25.68,WSW,250,7.0,10.0,82,0.00,,,0.00,weatherlink.com 1.10,2013-01-15 06:54:00,